• Join FlightAware (Why Join?)
  • Login
  • US Flag 
02:27AM EDT


 

Airport Tracker/Info


-or-


 

Live Flight TrackerFlight Track Log ✈ EVA772 ✈ 03-Feb-2014 ✈ RCSS / TSA - ZSSS / SHA

Flight Track Log - Related Links

Times and Time Zones

All times are in EST time to prevent confusion due to time zone crossing. See the EVA772 flight status page for this flight to view local times or setup timezone preferences in your user account.

Time Position Orientation Groundspeed Altitude Reporting Facility
EST Latitude Longitude Course Direction KTS MPH feet Rate Location/Type
01:47AM 25.3179 121.5434 358° North  Level Estimated
01:48AM 25.4007 121.5406 358° North  Level Estimated
01:49AM 25.4834 121.5378 358° North  Level Estimated
01:50AM 25.5662 121.5351 358° North  Level Estimated
01:51AM 25.6490 121.5323 358° North  Level Estimated
01:52AM 25.7318 121.5295 358° North  Level Estimated
01:53AM 25.8146 121.5267 358° North  Level Estimated
01:54AM 25.8974 121.5239 358° North  Level Estimated
01:55AM 25.9802 121.5211 358° North  Level Estimated
01:56AM 26.0630 121.5183 358° North  Level Estimated
01:57AM 26.1458 121.5155 358° North  Level Estimated
01:58AM 26.2286 121.5127 358° North  Level Estimated
01:59AM 26.3114 121.5099 358° North  Level Estimated
02:00AM 26.3943 121.5071 358° North  Level Estimated
02:01AM 26.4771 121.5043 358° North  Level Estimated
02:02AM 26.5599 121.5015 358° North  Level Estimated
02:03AM 26.6427 121.4987 358° North  Level Estimated
02:04AM 26.7255 121.4958 358° North  Level Estimated
02:05AM 26.8083 121.4930 358° North  Level Estimated
02:06AM 26.8911 121.4902 358° North  Level Estimated
02:07AM 26.9739 121.4873 358° North  Level Estimated
02:08AM 27.0567 121.4845 358° North  Level Estimated
02:09AM 27.1395 121.4816 358° North  Level Estimated
02:10AM 27.2222 121.4788 358° North  Level Estimated
02:11AM 27.3050 121.4759 358° North  Level Estimated
02:12AM 27.3878 121.4731 358° North  Level Estimated
02:13AM 27.4706 121.4702 358° North  Level Estimated
02:14AM 27.5534 121.4673 358° North  Level Estimated
02:15AM 27.6362 121.4644 358° North  Level Estimated
02:16AM 27.7190 121.4616 358° North  Level Estimated
02:17AM 27.8018 121.4587 358° North  Level Estimated
02:18AM 27.8846 121.4558 358° North  Level Estimated
02:19AM 27.9674 121.4529 358° North  Level Estimated
02:20AM 28.0502 121.4500 358° North  Level Estimated
02:21AM 28.1331 121.4471 358° North  Level Estimated
02:22AM 28.2159 121.4442 358° North  Level Estimated
02:23AM 28.2987 121.4413 358° North  Level Estimated
02:24AM 28.3815 121.4384 358° North  Level Estimated
02:25AM 28.4643 121.4354 358° North  Level Estimated
02:26AM 28.5471 121.4325 358° North  Level Estimated
02:27AM 28.6299 121.4296 358° North  Level Estimated
02:28AM 28.7127 121.4267 358° North  Level Estimated
02:29AM 28.7955 121.4237 358° North  Level Estimated
02:30AM 28.8783 121.4208 358° North  Level Estimated
02:31AM 28.9611 121.4178 358° North  Level Estimated
02:32AM 29.0438 121.4149 358° North  Level Estimated
02:33AM 29.1266 121.4119 358° North  Level Estimated
02:34AM 29.2094 121.4090 358° North  Level Estimated
02:35AM 29.2922 121.4060 358° North  Level Estimated
02:36AM 29.3750 121.4030 358° North  Level Estimated
02:37AM 29.4578 121.4000 358° North  Level Estimated
02:38AM 29.5406 121.3971 358° North  Level Estimated
02:39AM 29.6234 121.3941 358° North  Level Estimated
02:40AM 29.7062 121.3911 358° North  Level Estimated
02:41AM 29.7890 121.3881 358° North  Level Estimated
02:42AM 29.8718 121.3851 358° North  Level Estimated
02:43AM 29.9547 121.3821 358° North  Level Estimated
02:44AM 30.0375 121.3791 358° North  Level Estimated
02:45AM 30.1203 121.3760 358° North  Level Estimated
02:46AM 30.2031 121.3730 358° North  Level Estimated
02:47AM 30.2859 121.3700 358° North  Level Estimated
02:48AM 30.3687 121.3670 358° North  Level Estimated
02:49AM 30.4515 121.3639 358° North  Level Estimated
02:50AM 30.5343 121.3609 358° North  Level Estimated
02:51AM 30.6171 121.3578 358° North  Level Estimated
02:52AM 30.6999 121.3548 358° North  Level Estimated
02:53AM 30.7826 121.3517 358° North  Level Estimated
02:54AM 30.8654 121.3487 358° North  Level Estimated
02:55AM 30.9482 121.3456 358° North  Level Estimated
02:56AM 31.0310 121.3425 358° North  Level Estimated
02:57AM 31.1138 121.3394 358° North  Level Estimated
02:58AM 31.1966 121.3364 358° North  Level Estimated
02:59AM 31.1979 121.3363 358° North  Level Estimated
03:00AM 31.1979 121.3363 350° North  Level Estimated
03:01AM 31.1979 121.3363 350° North  Level Estimated
03:02AM 31.1979 121.3363 350° North  Level Estimated
03:03AM 31.1979 121.3363 350° North  Level Estimated
03:04AM 31.1979 121.3363 350° North  Level Estimated
03:05AM 31.1979 121.3363 350° North  Level Estimated
03:06AM 31.1979 121.3363 350° North  Level Estimated
03:07AM 31.1979 121.3363 350° North  Level Estimated
03:08AM 31.1979 121.3363 350° North  Level Estimated
03:09AM 31.1979 121.3363 350° North  Level Estimated
03:10AM 31.1979 121.3363 350° North  Level Estimated
03:11AM 31.1979 121.3363 350° North  Level Estimated
03:12AM 31.1979 121.3363 350° North  Level Estimated
03:13AM 31.1979 121.3363 350° North  Level Estimated
03:14AM 31.1979 121.3363 350° North  Level Estimated